createdAt,value
2023-04-26T00:01:56.307Z,87.30
2023-04-26T00:04:58.553Z,86.90
2023-04-26T00:08:01.004Z,86.90
2023-04-26T00:11:05.476Z,87.50
2023-04-26T00:14:07.539Z,86.30
2023-04-26T00:17:09.755Z,86.70
2023-04-26T00:20:12.128Z,86.70
2023-04-26T00:23:14.839Z,86.40
2023-04-26T00:26:16.782Z,86.30
2023-04-26T00:29:18.799Z,86.60
2023-04-26T00:32:23.256Z,86.60
2023-04-26T00:35:25.933Z,86.60
2023-04-26T00:38:28.051Z,86.90
2023-04-26T00:41:30.104Z,87.70
2023-04-26T00:44:32.520Z,87.80
2023-04-26T00:47:35.220Z,87.80
2023-04-26T00:50:37.320Z,87.50
2023-04-26T00:53:39.710Z,87.40
2023-04-26T00:56:43.163Z,87.90
2023-04-26T00:59:45.215Z,87.50
2023-04-26T01:02:47.559Z,87.70
2023-04-26T01:05:50.410Z,88.40
2023-04-26T01:08:53.901Z,88.30
2023-04-26T01:11:56.855Z,88.20
2023-04-26T01:15:00.290Z,87.80
2023-04-26T01:18:02.781Z,87.40
2023-04-26T01:21:07.069Z,86.60
2023-04-26T01:24:13.883Z,86.30
2023-04-26T01:27:16.091Z,86.60
2023-04-26T01:30:18.061Z,86.30
2023-04-26T01:33:20.721Z,86.60
2023-04-26T01:36:22.744Z,86.90
2023-04-26T01:39:24.690Z,86.70
2023-04-26T01:42:26.618Z,85.90
2023-04-26T01:45:28.614Z,86.00
2023-04-26T01:48:49.239Z,85.20
2023-04-26T01:51:51.266Z,84.60
2023-04-26T01:54:53.264Z,84.80
2023-04-26T01:57:55.749Z,85.90
2023-04-26T02:01:04.689Z,86.10
2023-04-26T02:04:06.627Z,86.20
2023-04-26T02:07:08.740Z,85.60
2023-04-26T02:10:21.089Z,85.90
2023-04-26T02:13:23.145Z,85.80
2023-04-26T02:16:25.134Z,85.90
2023-04-26T02:19:27.200Z,86.00
2023-04-26T02:22:29.246Z,86.20
2023-04-26T02:25:31.194Z,85.80
2023-04-26T02:28:33.199Z,86.10
2023-04-26T02:31:35.289Z,85.90
2023-04-26T02:34:37.384Z,86.30
2023-04-26T02:37:39.433Z,86.30
2023-04-26T02:40:41.519Z,85.50
2023-04-26T02:43:45.065Z,85.30
2023-04-26T02:46:47.326Z,85.00
2023-04-26T02:49:49.378Z,85.10
2023-04-26T02:52:51.382Z,84.90
2023-04-26T02:55:53.287Z,85.70
2023-04-26T02:58:55.907Z,85.60
2023-04-26T03:01:57.998Z,86.00
2023-04-26T03:05:02.242Z,85.90
2023-04-26T03:08:08.142Z,86.10
2023-04-26T03:11:10.136Z,86.00
2023-04-26T03:14:13.302Z,86.10
2023-04-26T03:17:15.569Z,85.90
2023-04-26T03:20:18.017Z,85.60
2023-04-26T03:23:20.183Z,85.10
2023-04-26T03:26:22.350Z,85.50
2023-04-26T03:29:24.392Z,85.80
2023-04-26T03:32:26.405Z,85.80
2023-04-26T03:35:28.476Z,85.10
2023-04-26T03:38:30.537Z,85.30
2023-04-26T03:41:32.546Z,85.20
2023-04-26T03:44:41.894Z,84.80
2023-04-26T03:47:43.910Z,84.40
2023-04-26T03:50:46.299Z,85.00
2023-04-26T03:53:48.377Z,85.20
2023-04-26T03:56:50.638Z,84.80
2023-04-26T03:59:52.758Z,84.50
2023-04-26T04:02:57.719Z,85.00
2023-04-26T04:06:01.663Z,84.70
2023-04-26T04:09:05.078Z,85.00
2023-04-26T04:12:09.872Z,85.30
2023-04-26T04:15:12.212Z,85.10
2023-04-26T04:18:19.749Z,84.20
2023-04-26T04:21:21.960Z,83.90
2023-04-26T04:24:24.848Z,85.00
2023-04-26T04:27:27.851Z,85.00
2023-04-26T04:30:30.555Z,85.50
2023-04-26T04:33:32.614Z,85.00
2023-04-26T04:36:37.553Z,85.00
2023-04-26T04:39:39.610Z,84.90
2023-04-26T04:42:42.192Z,85.70
2023-04-26T04:45:44.819Z,85.60
2023-04-26T04:48:47.466Z,85.90
2023-04-26T04:51:49.538Z,85.10
2023-04-26T04:54:51.599Z,84.90
2023-04-26T04:57:56.079Z,85.40
2023-04-26T05:00:58.775Z,84.60
2023-04-26T05:04:04.159Z,84.40
2023-04-26T05:07:06.324Z,83.90
2023-04-26T05:10:10.709Z,84.70
2023-04-26T05:13:12.740Z,85.20
2023-04-26T05:16:16.355Z,85.50
2023-04-26T05:19:18.691Z,84.30
2023-04-26T05:22:21.243Z,85.10
2023-04-26T05:25:23.512Z,84.50
2023-04-26T05:28:32.028Z,85.00
2023-04-26T05:31:52.731Z,84.20
2023-04-26T05:35:21.812Z,84.70
2023-04-26T05:38:23.913Z,84.90
2023-04-26T05:41:26.001Z,85.00
2023-04-26T05:44:28.563Z,85.50
2023-04-26T05:47:31.138Z,85.90
2023-04-26T05:50:33.176Z,85.80
2023-04-26T05:53:35.302Z,85.20
2023-04-26T05:56:37.585Z,85.40
2023-04-26T05:59:40.372Z,84.60
2023-04-26T06:02:42.723Z,83.80
2023-04-26T06:05:51.532Z,82.40
2023-04-26T06:08:53.846Z,81.10
2023-04-26T06:11:56.255Z,78.30
2023-04-26T06:14:58.227Z,76.90
2023-04-26T06:18:02.712Z,73.90
2023-04-26T06:21:07.108Z,71.80
2023-04-26T06:24:09.157Z,68.40
2023-04-26T06:27:12.408Z,66.70
2023-04-26T06:30:19.103Z,65.80
2023-04-26T06:33:22.906Z,65.70
2023-04-26T06:36:26.316Z,64.50
2023-04-26T06:39:28.386Z,63.50
2023-04-26T06:42:30.513Z,62.60
2023-04-26T06:45:50.845Z,63.40
2023-04-26T06:48:55.112Z,63.50
2023-04-26T06:51:57.401Z,61.00
2023-04-26T06:55:02.691Z,60.80
2023-04-26T06:58:05.411Z,59.00
2023-04-26T07:01:11.092Z,57.30
2023-04-26T07:04:13.245Z,57.80
2023-04-26T07:07:15.279Z,55.90
2023-04-26T07:10:17.227Z,58.80
2023-04-26T07:13:19.232Z,56.70
2023-04-26T07:16:21.692Z,55.50
2023-04-26T07:19:23.688Z,52.50
2023-04-26T07:22:25.773Z,51.60
2023-04-26T07:25:27.615Z,50.60
2023-04-26T07:28:29.608Z,51.90
2023-04-26T07:31:32.169Z,52.30
2023-04-26T07:34:34.230Z,50.80
2023-04-26T07:37:36.266Z,51.00
2023-04-26T07:40:40.508Z,52.00
2023-04-26T07:43:42.514Z,52.70
2023-04-26T07:46:44.423Z,48.70
2023-04-26T07:49:47.742Z,49.30
2023-04-26T07:52:49.956Z,49.30
2023-04-26T07:55:52.146Z,48.20
2023-04-26T07:58:54.083Z,48.10
2023-04-26T08:01:56.119Z,47.70
2023-04-26T08:05:00.803Z,46.70
2023-04-26T08:08:02.960Z,47.40
2023-04-26T08:11:08.129Z,45.80
2023-04-26T08:14:10.201Z,45.50
2023-04-26T08:17:12.735Z,44.80
2023-04-26T08:20:14.855Z,45.80
2023-04-26T08:23:16.785Z,44.60
2023-04-26T08:26:19.329Z,43.80
2023-04-26T08:29:21.717Z,43.70
2023-04-26T08:32:23.712Z,42.40
2023-04-26T08:35:27.593Z,43.10
2023-04-26T08:38:29.535Z,41.00
2023-04-26T08:41:36.464Z,39.70
2023-04-26T08:44:39.649Z,39.10
2023-04-26T08:47:49.570Z,38.20
2023-04-26T08:50:52.810Z,36.80
2023-04-26T08:53:57.061Z,38.20
2023-04-26T08:56:59.841Z,38.00
2023-04-26T09:00:06.479Z,39.30
2023-04-26T09:03:08.675Z,40.70
2023-04-26T09:06:11.352Z,41.20
2023-04-26T09:09:17.596Z,41.70
2023-04-26T09:13:29.316Z,42.10
2023-04-26T09:16:37.846Z,43.10
2023-04-26T09:19:41.400Z,42.80
2023-04-26T09:22:43.411Z,42.20
2023-04-26T09:25:45.459Z,40.80
2023-04-26T09:28:47.696Z,44.10
2023-04-26T09:31:50.360Z,42.60
2023-04-26T09:34:53.038Z,41.90
2023-04-26T09:37:59.974Z,43.80
2023-04-26T09:41:03.327Z,41.30
2023-04-26T09:44:05.514Z,43.70
2023-04-26T09:47:12.308Z,41.50
2023-04-26T09:50:14.390Z,43.60
2023-04-26T09:53:25.616Z,42.90
2023-04-26T09:56:27.724Z,41.30
2023-04-26T09:59:43.370Z,39.90
2023-04-26T10:02:46.005Z,37.90
2023-04-26T10:05:48.596Z,39.00
2023-04-26T10:08:50.828Z,38.20
2023-04-26T10:11:53.273Z,39.80
2023-04-26T10:14:56.880Z,37.70
2023-04-26T10:17:59.297Z,38.90
2023-04-26T10:21:11.147Z,38.30
2023-04-26T10:24:13.151Z,36.30
2023-04-26T10:27:15.137Z,38.70
2023-04-26T10:30:19.451Z,39.70
2023-04-26T10:33:21.579Z,37.80
2023-04-26T10:36:23.647Z,33.90
2023-04-26T10:39:25.508Z,34.40
2023-04-26T10:42:28.824Z,36.10
2023-04-26T10:45:30.985Z,34.30
2023-04-26T10:48:34.193Z,36.20
2023-04-26T11:03:16.869Z,35.80
2023-04-26T11:09:49.297Z,36.90
2023-04-26T11:13:03.589Z,35.60
2023-04-26T11:16:10.803Z,35.30
2023-04-26T11:19:12.804Z,36.60
2023-04-26T11:22:14.839Z,36.10
2023-04-26T11:25:16.873Z,35.30
2023-04-26T11:28:19.405Z,35.20
2023-04-26T11:31:21.851Z,39.20
2023-04-26T11:34:32.368Z,36.00
2023-04-26T11:37:34.847Z,36.90
2023-04-26T11:40:36.838Z,37.60
2023-04-26T11:43:39.969Z,34.80
2023-04-26T11:46:44.993Z,36.70
2023-04-26T11:49:47.316Z,37.00
2023-04-26T11:52:49.409Z,37.20
2023-04-26T11:55:51.879Z,37.20
2023-04-26T11:58:54.306Z,35.20
2023-04-26T12:01:58.108Z,36.80
2023-04-26T12:05:00.431Z,34.10
2023-04-26T12:08:02.898Z,37.10
2023-04-26T12:11:04.942Z,34.80
2023-04-26T12:14:06.873Z,39.80
2023-04-26T12:17:08.893Z,35.90
2023-04-26T12:20:11.652Z,39.10
2023-04-26T12:23:15.429Z,39.10
2023-04-26T12:26:17.514Z,38.70
2023-04-26T12:29:19.430Z,37.00
2023-04-26T12:32:22.622Z,38.90
2023-04-26T12:35:25.235Z,37.60
2023-04-26T12:38:27.312Z,38.60
2023-04-26T12:41:29.249Z,35.80
2023-04-26T12:44:31.813Z,38.10
2023-04-26T12:47:34.032Z,37.40
2023-04-26T12:50:36.032Z,37.30
2023-04-26T12:53:37.943Z,40.10
2023-04-26T12:56:43.105Z,36.00
2023-04-26T12:59:45.002Z,37.90
2023-04-26T13:02:47.443Z,38.80
2023-04-26T13:05:49.675Z,36.60
2023-04-26T13:08:51.734Z,37.30
2023-04-26T13:11:53.767Z,37.20
2023-04-26T13:14:56.161Z,39.20
2023-04-26T13:17:58.242Z,38.90
2023-04-26T13:21:00.642Z,38.10
2023-04-26T13:24:02.726Z,37.70
2023-04-26T13:27:04.890Z,41.00
2023-04-26T13:30:07.108Z,36.60
2023-04-26T13:33:09.110Z,36.80
2023-04-26T13:36:11.104Z,38.50
2023-04-26T13:39:14.201Z,38.70
2023-04-26T13:42:16.835Z,38.80
2023-04-26T13:45:19.519Z,36.60
2023-04-26T13:48:21.672Z,39.10
2023-04-26T13:51:23.935Z,38.20
2023-04-26T13:54:26.004Z,37.70
2023-04-26T13:57:27.918Z,39.20
2023-04-26T14:00:30.417Z,39.00
2023-04-26T14:03:32.574Z,37.30
2023-04-26T14:06:35.179Z,38.10
2023-04-26T14:09:37.268Z,37.70
2023-04-26T14:12:39.334Z,39.80
2023-04-26T14:15:41.481Z,40.00
2023-04-26T14:18:43.390Z,39.30
2023-04-26T14:21:45.337Z,36.00
2023-04-26T14:24:47.390Z,37.00
2023-04-26T14:27:53.488Z,38.20
2023-04-26T14:30:55.812Z,37.90
2023-04-26T14:33:57.860Z,36.30
2023-04-26T14:37:00.165Z,37.90
2023-04-26T14:40:02.139Z,37.50
2023-04-26T14:43:04.224Z,36.90
2023-04-26T14:46:08.465Z,37.90
2023-04-26T14:49:10.520Z,36.00
2023-04-26T14:52:12.462Z,37.40
2023-04-26T14:55:22.191Z,39.00
2023-04-26T14:58:25.157Z,37.60
2023-04-26T15:01:28.191Z,40.50
2023-04-26T15:04:30.468Z,38.20
2023-04-26T15:07:33.169Z,38.80
2023-04-26T15:10:35.253Z,38.60
2023-04-26T15:13:37.320Z,39.40
2023-04-26T15:19:52.898Z,39.30
2023-04-26T15:22:54.882Z,38.70
2023-04-26T15:26:02.432Z,39.00
2023-04-26T15:29:04.407Z,39.30
2023-04-26T15:32:06.416Z,37.40
2023-04-26T15:35:12.496Z,37.50
2023-04-26T15:38:14.415Z,37.80
2023-04-26T15:41:16.519Z,39.10
2023-04-26T15:44:18.641Z,38.50
2023-04-26T15:47:20.637Z,37.40
2023-04-26T15:50:22.629Z,38.40
2023-04-26T15:53:25.078Z,38.30
2023-04-26T15:56:27.078Z,38.60
2023-04-26T15:59:29.185Z,39.40
2023-04-26T16:02:31.308Z,39.70
2023-04-26T16:05:33.555Z,40.00
2023-04-26T16:08:40.382Z,39.10
2023-04-26T16:11:42.985Z,38.60
2023-04-26T16:14:45.062Z,40.90
2023-04-26T16:17:47.531Z,42.70
2023-04-26T16:20:52.049Z,42.30
2023-04-26T16:23:56.813Z,41.00
2023-04-26T16:26:58.816Z,42.10
2023-04-26T16:30:01.308Z,41.00
2023-04-26T16:33:03.821Z,39.50
2023-04-26T16:36:08.290Z,39.80
2023-04-26T16:39:10.470Z,40.90
2023-04-26T16:42:13.055Z,39.60
2023-04-26T16:45:16.581Z,40.30
2023-04-26T16:48:19.212Z,39.70
2023-04-26T16:51:24.456Z,39.90
2023-04-26T16:54:26.686Z,41.30
2023-04-26T16:57:28.723Z,40.70
2023-04-26T17:00:31.517Z,39.80
2023-04-26T17:03:33.677Z,40.40
2023-04-26T17:06:35.832Z,39.70
2023-04-26T17:09:38.541Z,40.00
2023-04-26T17:12:41.049Z,42.20
2023-04-26T17:15:43.507Z,40.70
2023-04-26T17:18:45.621Z,40.30
2023-04-26T17:21:48.076Z,41.10
2023-04-26T17:24:49.992Z,40.60
2023-04-26T17:27:52.644Z,40.10
2023-04-26T17:30:54.668Z,40.00
2023-04-26T17:33:56.689Z,40.20
2023-04-26T17:37:00.737Z,42.50
2023-04-26T17:40:02.825Z,41.40
2023-04-26T17:43:05.499Z,43.60
2023-04-26T17:46:09.504Z,42.50
2023-04-26T17:49:11.767Z,45.40
2023-04-26T17:52:14.192Z,41.50
2023-04-26T17:55:16.477Z,44.40
2023-04-26T17:58:18.645Z,43.00
2023-04-26T18:01:20.675Z,44.70
2023-04-26T18:04:22.924Z,44.20
2023-04-26T18:07:25.142Z,43.40
2023-04-26T18:10:27.313Z,43.20
2023-04-26T18:13:29.300Z,45.40
2023-04-26T18:16:33.964Z,44.90
2023-04-26T18:19:35.948Z,45.20
2023-04-26T18:22:37.960Z,45.80
2023-04-26T18:25:40.225Z,46.70
2023-04-26T18:28:42.446Z,48.00
2023-04-26T18:31:44.717Z,47.90
2023-04-26T18:34:50.669Z,50.00
2023-04-26T18:37:55.354Z,52.30
2023-04-26T18:40:59.603Z,53.70
2023-04-26T18:44:01.853Z,53.00
2023-04-26T18:47:03.923Z,52.80
2023-04-26T18:50:06.493Z,50.50
2023-04-26T18:53:08.988Z,48.70
2023-04-26T18:56:11.516Z,51.30
2023-04-26T18:59:13.513Z,50.70
2023-04-26T19:02:15.693Z,50.80
2023-04-26T19:05:19.305Z,49.40
2023-04-26T19:08:21.804Z,49.70
2023-04-26T19:11:24.695Z,49.10
2023-04-26T19:14:26.848Z,49.50
2023-04-26T19:17:29.266Z,53.00
2023-04-26T19:20:31.370Z,54.50
2023-04-26T19:23:33.980Z,54.50
2023-04-26T19:26:37.531Z,54.10
2023-04-26T19:29:39.569Z,53.00
2023-04-26T19:32:41.883Z,51.90
2023-04-26T19:35:46.421Z,52.20
2023-04-26T19:38:50.265Z,54.30
2023-04-26T19:41:52.356Z,58.10
2023-04-26T19:44:54.426Z,60.00
2023-04-26T19:47:56.595Z,61.40
2023-04-26T19:50:58.570Z,62.10
2023-04-26T19:54:00.586Z,61.10
2023-04-26T19:57:02.621Z,62.00
2023-04-26T20:00:05.094Z,63.60
2023-04-26T20:03:09.399Z,64.30
2023-04-26T20:06:11.447Z,65.10
2023-04-26T20:09:13.462Z,65.00
2023-04-26T20:12:15.439Z,63.40
2023-04-26T20:15:17.474Z,63.00
2023-04-26T20:18:19.511Z,62.80
2023-04-26T20:21:21.508Z,62.30
2023-04-26T20:24:23.580Z,62.20
2023-04-26T20:27:25.585Z,61.30
2023-04-26T20:30:28.315Z,61.20
2023-04-26T20:33:30.300Z,59.90
2023-04-26T20:36:32.325Z,59.30
2023-04-26T20:39:34.382Z,56.20
2023-04-26T20:42:36.434Z,54.50
2023-04-26T20:45:39.900Z,55.90
2023-04-26T20:48:42.071Z,57.00
2023-04-26T20:51:44.001Z,59.10
2023-04-26T20:54:46.128Z,56.80
2023-04-26T20:57:49.149Z,58.30
2023-04-26T21:03:59.330Z,57.80
2023-04-26T21:07:01.591Z,57.00
2023-04-26T21:10:03.673Z,60.10
2023-04-26T21:13:08.557Z,59.80
2023-04-26T21:16:10.562Z,59.30
2023-04-26T21:19:12.889Z,57.70
2023-04-26T21:22:14.904Z,58.00
2023-04-26T21:25:17.015Z,60.20
2023-04-26T21:28:19.144Z,61.70
2023-04-26T21:31:21.199Z,62.10
2023-04-26T21:34:23.372Z,62.00
2023-04-26T21:37:25.363Z,62.50
2023-04-26T21:40:27.433Z,61.70
2023-04-26T21:43:29.889Z,62.90
2023-04-26T21:46:31.918Z,62.90
2023-04-26T21:49:34.051Z,64.20
2023-04-26T21:52:37.367Z,63.10
2023-04-26T21:55:39.767Z,65.00
2023-04-26T21:58:44.007Z,63.80
2023-04-26T22:01:46.017Z,64.30
2023-04-26T22:04:48.185Z,63.40
2023-04-26T22:07:50.084Z,64.00
2023-04-26T22:10:52.221Z,64.70
2023-04-26T22:13:54.131Z,64.20
2023-04-26T22:16:56.184Z,64.90
2023-04-26T22:19:58.192Z,66.20
2023-04-26T22:23:00.230Z,65.20
2023-04-26T22:26:02.231Z,66.20
2023-04-26T22:29:04.203Z,64.80
2023-04-26T22:32:07.694Z,65.30
2023-04-26T22:35:09.783Z,65.00
2023-04-26T22:38:14.285Z,62.70
2023-04-26T22:41:18.526Z,65.00
2023-04-26T22:44:20.661Z,66.20
2023-04-26T22:47:25.218Z,67.10
2023-04-26T22:50:27.231Z,66.90
2023-04-26T22:53:29.202Z,67.80
2023-04-26T22:56:31.484Z,66.40
2023-04-26T22:59:33.416Z,66.30
2023-04-26T23:02:35.645Z,67.50
2023-04-26T23:05:37.696Z,68.80
2023-04-26T23:08:39.824Z,68.00
2023-04-26T23:11:41.783Z,68.40
2023-04-26T23:14:43.770Z,68.10
2023-04-26T23:17:45.809Z,68.50
2023-04-26T23:20:48.045Z,68.60
2023-04-26T23:23:49.996Z,68.90
2023-04-26T23:26:51.973Z,68.70
2023-04-26T23:29:53.912Z,68.40
2023-04-26T23:32:55.927Z,68.50
2023-04-26T23:35:57.919Z,67.00
2023-04-26T23:38:59.974Z,66.50
2023-04-26T23:42:02.087Z,67.30
2023-04-26T23:45:04.545Z,67.70
2023-04-26T23:48:06.487Z,66.60
2023-04-26T23:51:08.481Z,64.90
2023-04-26T23:54:10.434Z,66.00
2023-04-26T23:57:12.417Z,66.90
